createdAt,value
2019-04-03T00:01:25.861Z,10.00
2019-04-03T00:03:53.358Z,10.00
2019-04-03T00:06:24.077Z,9.90
2019-04-03T00:08:51.561Z,9.70
2019-04-03T00:11:19.075Z,9.60
2019-04-03T00:13:46.529Z,9.50
2019-04-03T00:16:15.620Z,9.30
2019-04-03T00:18:43.318Z,9.20
2019-04-03T00:21:10.762Z,9.20
2019-04-03T00:23:38.284Z,9.10
2019-04-03T00:26:05.755Z,9.00
2019-04-03T00:28:33.227Z,8.90
2019-04-03T00:31:00.877Z,8.90
2019-04-03T00:33:28.384Z,8.80
2019-04-03T00:35:55.870Z,8.80
2019-04-03T00:38:24.225Z,8.80
2019-04-03T00:40:53.882Z,8.80
2019-04-03T00:43:22.824Z,8.80
2019-04-03T00:45:50.758Z,8.80
2019-04-03T00:48:18.256Z,8.80
2019-04-03T00:50:45.706Z,8.90
2019-04-03T00:53:13.197Z,9.10
2019-04-03T00:55:40.688Z,9.20
2019-04-03T00:58:33.707Z,9.10
2019-04-03T01:01:01.261Z,9.00
2019-04-03T01:03:28.755Z,8.80
2019-04-03T01:05:58.027Z,8.60
2019-04-03T01:08:25.747Z,8.50
2019-04-03T01:10:53.235Z,8.40
2019-04-03T01:13:20.713Z,8.20
2019-04-03T01:15:48.218Z,8.00
2019-04-03T01:18:15.709Z,7.90
2019-04-03T01:20:43.287Z,7.70
2019-04-03T01:23:10.751Z,7.70
2019-04-03T01:25:39.699Z,7.70
2019-04-03T01:28:07.603Z,7.80
2019-04-03T01:30:54.545Z,8.10
2019-04-03T01:33:22.199Z,8.20
2019-04-03T01:35:49.613Z,8.20
2019-04-03T01:38:17.813Z,8.10
2019-04-03T01:40:46.449Z,8.00
2019-04-03T01:43:14.023Z,8.00
2019-04-03T01:45:41.539Z,8.00
2019-04-03T01:48:08.992Z,7.90
2019-04-03T01:50:36.571Z,7.70
2019-04-03T01:53:04.028Z,7.60
2019-04-03T01:55:33.982Z,7.50
2019-04-03T01:58:00.921Z,7.40
2019-04-03T02:00:28.387Z,7.30
2019-04-03T02:02:55.865Z,7.20
2019-04-03T02:05:23.332Z,7.10
2019-04-03T02:07:50.801Z,7.10
2019-04-03T02:10:20.919Z,6.90
2019-04-03T02:12:50.412Z,6.80
2019-04-03T02:15:17.670Z,6.70
2019-04-03T02:17:45.185Z,6.80
2019-04-03T02:20:12.883Z,6.80
2019-04-03T02:22:40.357Z,6.70
2019-04-03T02:25:07.837Z,6.70
2019-04-03T02:27:35.380Z,6.70
2019-04-03T02:30:03.431Z,6.60
2019-04-03T02:32:30.897Z,6.40
2019-04-03T02:34:58.576Z,6.30
2019-04-03T02:37:26.071Z,6.20
2019-04-03T02:39:53.555Z,6.20
2019-04-03T02:42:21.038Z,6.10
2019-04-03T02:44:50.908Z,6.10
2019-04-03T02:47:17.781Z,6.10
2019-04-03T02:49:45.326Z,6.10
2019-04-03T02:52:12.754Z,6.10
2019-04-03T02:54:41.303Z,6.10
2019-04-03T02:57:09.225Z,6.10
2019-04-03T02:59:36.708Z,6.00
2019-04-03T03:02:04.208Z,6.00
2019-04-03T03:04:31.919Z,6.00
2019-04-03T03:07:03.196Z,6.00
2019-04-03T03:09:30.136Z,6.00
2019-04-03T03:11:58.059Z,6.10
2019-04-03T03:14:26.115Z,6.10
2019-04-03T03:16:53.697Z,6.10
2019-04-03T03:19:22.390Z,6.10
2019-04-03T03:21:52.235Z,6.20
2019-04-03T03:24:20.029Z,6.10
2019-04-03T03:26:47.577Z,6.20
2019-04-03T03:29:19.501Z,6.30
2019-04-03T03:32:05.482Z,6.40
2019-04-03T03:34:14.399Z,6.40
2019-04-03T03:36:42.570Z,6.50
2019-04-03T03:39:11.547Z,6.50
2019-04-03T03:41:39.503Z,6.50
2019-04-03T03:44:09.896Z,6.60
2019-04-03T03:46:37.489Z,6.60
2019-04-03T03:49:05.469Z,6.60
2019-04-03T03:51:33.221Z,6.60
2019-04-03T03:54:02.994Z,6.70
2019-04-03T03:56:31.794Z,6.60
2019-04-03T03:59:00.336Z,6.60
2019-04-03T04:01:28.520Z,6.70
2019-04-03T04:03:57.299Z,6.80
2019-04-03T04:06:28.219Z,6.80
2019-04-03T04:08:54.107Z,6.90
2019-04-03T04:11:21.611Z,6.90
2019-04-03T04:13:49.795Z,7.00
2019-04-03T04:16:18.402Z,7.10
2019-04-03T04:18:45.816Z,7.20
2019-04-03T04:21:14.370Z,7.20
2019-04-03T04:23:41.989Z,7.30
2019-04-03T04:26:09.472Z,7.30
2019-04-03T04:28:40.235Z,7.20
2019-04-03T04:31:07.549Z,7.20
2019-04-03T04:33:35.293Z,7.20
2019-04-03T04:36:02.831Z,7.30
2019-04-03T04:38:30.614Z,7.40
2019-04-03T04:40:58.106Z,7.40
2019-04-03T04:43:25.595Z,7.50
2019-04-03T04:45:53.098Z,7.60
2019-04-03T04:48:21.334Z,7.70
2019-04-03T04:50:49.015Z,7.90
2019-04-03T04:53:16.465Z,8.00
2019-04-03T04:55:44.244Z,8.10
2019-04-03T04:58:12.234Z,8.20
2019-04-03T05:00:39.778Z,8.20
2019-04-03T05:03:08.172Z,8.20
2019-04-03T05:05:35.892Z,8.30
2019-04-03T05:08:03.493Z,8.40
2019-04-03T05:10:31.031Z,8.40
2019-04-03T05:12:58.533Z,8.50
2019-04-03T05:15:26.100Z,8.50
2019-04-03T05:17:53.845Z,8.50
2019-04-03T05:20:21.464Z,8.50
2019-04-03T05:22:49.245Z,8.60
2019-04-03T05:25:16.797Z,8.60
2019-04-03T05:27:44.265Z,8.60
2019-04-03T05:30:20.643Z,8.60
2019-04-03T05:32:48.653Z,8.70
2019-04-03T05:35:16.076Z,8.70
2019-04-03T05:37:43.710Z,8.70
2019-04-03T05:40:11.276Z,8.70
2019-04-03T05:42:38.800Z,8.70
2019-04-03T05:45:06.820Z,8.70
2019-04-03T05:47:34.396Z,8.70
2019-04-03T05:50:01.927Z,8.80
2019-04-03T05:52:29.400Z,8.90
2019-04-03T05:54:56.881Z,8.90
2019-04-03T05:57:24.401Z,8.90
2019-04-03T05:59:59.818Z,9.00
2019-04-03T06:02:22.205Z,9.10
2019-04-03T06:04:50.112Z,9.10
2019-04-03T06:07:18.596Z,9.20
2019-04-03T06:09:46.622Z,9.30
2019-04-03T06:12:15.003Z,9.40
2019-04-03T06:14:43.496Z,9.50
2019-04-03T06:17:11.157Z,9.60
2019-04-03T06:19:39.769Z,9.70
2019-04-03T06:22:09.876Z,9.70
2019-04-03T06:24:36.953Z,9.70
2019-04-03T06:27:04.428Z,9.70
2019-04-03T06:29:31.900Z,9.80
2019-04-03T06:31:59.587Z,9.80
2019-04-03T06:34:27.135Z,9.90
2019-04-03T06:36:54.650Z,10.00
2019-04-03T06:39:23.448Z,10.10
2019-04-03T06:41:51.382Z,10.20
2019-04-03T06:44:20.520Z,10.20
2019-04-03T06:46:48.141Z,10.20
2019-04-03T06:49:15.677Z,10.20
2019-04-03T06:51:43.290Z,10.20
2019-04-03T06:54:10.962Z,10.30
2019-04-03T06:56:40.508Z,10.50
2019-04-03T06:59:07.803Z,10.70
2019-04-03T07:01:35.290Z,10.90
2019-04-03T07:04:04.359Z,11.00
2019-04-03T07:06:32.270Z,11.10
2019-04-03T07:08:59.759Z,11.20
2019-04-03T07:11:27.213Z,11.20
2019-04-03T07:13:54.911Z,11.40
2019-04-03T07:16:22.419Z,11.60
2019-04-03T07:18:50.121Z,12.00
2019-04-03T07:21:17.621Z,12.20
2019-04-03T07:23:45.091Z,12.40
2019-04-03T07:26:12.569Z,12.70
2019-04-03T07:28:41.631Z,12.90
2019-04-03T07:31:09.624Z,12.90
2019-04-03T07:33:37.209Z,12.80
2019-04-03T07:36:04.797Z,12.60
2019-04-03T07:38:32.288Z,12.70
2019-04-03T07:40:59.765Z,13.00
2019-04-03T07:43:27.923Z,13.40
2019-04-03T07:45:55.800Z,13.70
2019-04-03T07:48:23.281Z,14.00
2019-04-03T07:50:51.142Z,14.40
2019-04-03T07:53:19.934Z,14.70
2019-04-03T07:55:48.225Z,15.20
2019-04-03T07:58:15.710Z,15.60
2019-04-03T08:00:43.218Z,16.00
2019-04-03T08:03:10.690Z,16.20
2019-04-03T08:05:38.149Z,15.90
2019-04-03T08:08:05.656Z,15.90
2019-04-03T08:10:33.134Z,16.40
2019-04-03T08:13:00.676Z,17.30
2019-04-03T08:15:28.119Z,18.20
2019-04-03T08:17:57.390Z,18.90
2019-04-03T08:20:25.963Z,19.20
2019-04-03T08:22:54.892Z,19.60
2019-04-03T08:25:22.370Z,20.90
2019-04-03T08:27:49.845Z,21.80
2019-04-03T08:30:17.423Z,21.80
2019-04-03T08:32:47.356Z,22.00
2019-04-03T08:35:21.711Z,23.00
2019-04-03T08:37:43.806Z,23.60
2019-04-03T08:40:11.758Z,24.20
2019-04-03T08:42:39.547Z,24.50
2019-04-03T08:45:08.390Z,23.80
2019-04-03T08:47:37.625Z,23.80
2019-04-03T08:50:06.337Z,23.50
2019-04-03T08:52:34.815Z,23.00
2019-04-03T08:55:03.426Z,22.60
2019-04-03T08:57:30.886Z,22.60
2019-04-03T09:00:00.700Z,22.40
2019-04-03T09:02:27.707Z,23.20
2019-04-03T09:04:55.186Z,23.40
2019-04-03T09:07:24.518Z,23.50
2019-04-03T09:09:51.966Z,23.90
2019-04-03T09:12:19.454Z,23.90
2019-04-03T09:14:46.950Z,24.20
2019-04-03T09:17:14.460Z,24.40
2019-04-03T09:19:42.348Z,24.50
2019-04-03T09:22:09.981Z,23.70
2019-04-03T09:24:37.500Z,23.80
2019-04-03T09:27:04.923Z,23.80
2019-04-03T09:29:32.423Z,24.10
2019-04-03T09:31:59.888Z,24.10
2019-04-03T09:34:29.709Z,23.40
2019-04-03T09:36:56.749Z,23.80
2019-04-03T09:39:24.141Z,24.40
2019-04-03T09:41:51.591Z,24.50
2019-04-03T09:44:19.092Z,25.10
2019-04-03T09:46:46.536Z,25.10
2019-04-03T09:49:14.192Z,25.20
2019-04-03T09:51:41.706Z,25.50
2019-04-03T09:54:09.263Z,26.00
2019-04-03T09:56:37.627Z,25.70
2019-04-03T09:59:06.782Z,25.30
2019-04-03T10:01:35.112Z,24.60
2019-04-03T10:04:02.574Z,24.40
2019-04-03T10:06:31.026Z,24.60
2019-04-03T10:08:59.884Z,24.70
2019-04-03T10:11:27.499Z,24.70
2019-04-03T10:13:57.054Z,24.60
2019-04-03T10:16:24.249Z,23.90
2019-04-03T10:18:51.769Z,23.20
2019-04-03T10:21:19.910Z,23.20
2019-04-03T10:23:48.150Z,23.40
2019-04-03T10:26:15.621Z,24.20
2019-04-03T10:28:43.588Z,24.60
2019-04-03T10:31:12.713Z,25.00
2019-04-03T10:33:40.282Z,24.50
2019-04-03T10:36:10.241Z,24.10
2019-04-03T10:38:37.274Z,23.60
2019-04-03T10:41:05.182Z,23.90
2019-04-03T10:43:32.637Z,23.90
2019-04-03T10:46:00.094Z,24.20
2019-04-03T10:48:28.638Z,24.00
2019-04-03T10:50:56.304Z,23.70
2019-04-03T10:53:23.978Z,23.40
2019-04-03T10:55:51.691Z,23.50
2019-04-03T10:58:19.132Z,23.50
2019-04-03T11:00:47.330Z,23.30
2019-04-03T11:03:14.833Z,23.90
2019-04-03T11:05:42.631Z,24.10
2019-04-03T11:08:10.481Z,24.50
2019-04-03T11:10:38.640Z,23.80
2019-04-03T11:13:06.460Z,24.00
2019-04-03T11:15:34.259Z,24.20
2019-04-03T11:18:01.752Z,23.90
2019-04-03T11:20:29.455Z,23.90
2019-04-03T11:23:06.061Z,23.70
2019-04-03T11:25:26.245Z,23.80
2019-04-03T11:27:54.112Z,23.80
2019-04-03T11:30:24.103Z,24.00
2019-04-03T11:32:50.933Z,23.60
2019-04-03T11:35:20.577Z,23.40
2019-04-03T11:37:47.730Z,23.40
2019-04-03T11:40:18.132Z,23.80
2019-04-03T11:42:46.702Z,24.10
2019-04-03T11:45:16.154Z,24.20
2019-04-03T11:47:45.850Z,24.50
2019-04-03T11:50:13.710Z,23.80
2019-04-03T11:52:41.204Z,23.30
2019-04-03T11:55:10.878Z,23.10
2019-04-03T11:57:38.107Z,23.40
2019-04-03T12:00:08.700Z,23.20
2019-04-03T12:02:38.295Z,23.50
2019-04-03T12:05:05.689Z,23.30
2019-04-03T12:07:33.135Z,23.40
2019-04-03T12:10:02.800Z,23.60
2019-04-03T12:12:29.894Z,23.90
2019-04-03T12:14:57.597Z,24.30
2019-04-03T12:17:25.163Z,24.40
2019-04-03T12:19:52.596Z,24.50
2019-04-03T12:22:22.069Z,24.10
2019-04-03T12:24:49.547Z,23.60
2019-04-03T12:27:17.415Z,23.80
2019-04-03T12:29:45.367Z,24.10
2019-04-03T12:32:12.985Z,24.40
2019-04-03T12:34:40.520Z,23.80
2019-04-03T12:37:08.220Z,23.30
2019-04-03T12:39:35.781Z,23.10
2019-04-03T12:42:03.647Z,22.90
2019-04-03T12:44:31.156Z,22.90
2019-04-03T12:46:59.016Z,23.20
2019-04-03T12:49:26.814Z,23.50
2019-04-03T12:51:54.615Z,23.90
2019-04-03T12:54:22.193Z,23.90
2019-04-03T12:56:49.665Z,23.60
2019-04-03T12:59:20.098Z,23.40
2019-04-03T13:01:48.644Z,22.70
2019-04-03T13:04:15.706Z,22.30
2019-04-03T13:06:43.471Z,22.40
2019-04-03T13:09:11.051Z,22.60
2019-04-03T13:11:38.916Z,22.80
2019-04-03T13:14:06.449Z,22.90
2019-04-03T13:16:33.899Z,22.90
2019-04-03T13:19:01.642Z,22.80
2019-04-03T13:21:29.673Z,22.70
2019-04-03T13:23:57.450Z,23.10
2019-04-03T13:26:25.883Z,23.40
2019-04-03T13:28:53.498Z,23.40
2019-04-03T13:31:20.997Z,23.30
2019-04-03T13:33:48.457Z,23.50
2019-04-03T13:36:16.967Z,23.60
2019-04-03T13:38:45.209Z,23.40
2019-04-03T13:41:12.688Z,23.40
2019-04-03T13:43:40.182Z,23.00
2019-04-03T13:46:07.948Z,22.80
2019-04-03T13:48:35.423Z,22.50
2019-04-03T13:51:03.013Z,22.40
2019-04-03T13:53:30.848Z,22.30
2019-04-03T13:55:58.882Z,22.30
2019-04-03T13:58:27.904Z,22.00
2019-04-03T14:01:00.694Z,21.60
2019-04-03T14:03:27.696Z,21.30
2019-04-03T14:05:54.422Z,21.20
2019-04-03T14:08:22.048Z,21.10
2019-04-03T14:10:49.590Z,21.20
2019-04-03T14:13:16.990Z,21.60
2019-04-03T14:15:45.683Z,21.80
2019-04-03T14:18:13.299Z,22.10
2019-04-03T14:20:40.811Z,22.40
2019-04-03T14:23:08.774Z,22.50
2019-04-03T14:25:38.070Z,22.60
2019-04-03T14:28:05.830Z,22.60
2019-04-03T14:30:33.897Z,22.60
2019-04-03T14:33:01.418Z,22.20
2019-04-03T14:35:50.340Z,21.70
2019-04-03T14:37:59.504Z,21.50
2019-04-03T14:40:27.983Z,21.50
2019-04-03T14:42:58.184Z,21.20
2019-04-03T14:45:24.770Z,21.00
2019-04-03T14:47:54.193Z,20.60
2019-04-03T14:50:21.679Z,20.30
2019-04-03T14:52:49.678Z,20.10
2019-04-03T14:55:20.559Z,20.00
2019-04-03T14:57:50.257Z,19.80
2019-04-03T15:00:26.115Z,19.70
2019-04-03T15:02:47.542Z,19.70
2019-04-03T15:05:15.035Z,19.70
2019-04-03T15:07:42.532Z,19.70
2019-04-03T15:10:10.098Z,19.70
2019-04-03T15:12:39.820Z,19.60
2019-04-03T15:15:07.989Z,19.50
2019-04-03T15:17:37.245Z,19.40
2019-04-03T15:20:06.247Z,19.40
2019-04-03T15:22:33.700Z,19.30
2019-04-03T15:25:01.433Z,19.20
2019-04-03T15:27:29.680Z,19.10
2019-04-03T15:29:57.720Z,19.10
2019-04-03T15:32:25.244Z,19.00
2019-04-03T15:34:53.135Z,18.90
2019-04-03T15:37:20.742Z,18.90
2019-04-03T15:39:54.374Z,18.80
2019-04-03T15:42:17.631Z,18.80
2019-04-03T15:44:45.383Z,18.70
2019-04-03T15:47:13.329Z,18.60
2019-04-03T15:49:40.897Z,18.60
2019-04-03T15:52:08.880Z,18.50
2019-04-03T15:54:37.614Z,18.50
2019-04-03T15:57:05.748Z,18.50
2019-04-03T15:59:33.263Z,18.40
2019-04-03T16:02:00.746Z,18.30
2019-04-03T16:04:29.017Z,18.30
2019-04-03T16:06:56.573Z,18.20
2019-04-03T16:09:24.461Z,18.20
2019-04-03T16:11:52.044Z,18.10
2019-04-03T16:14:20.904Z,18.00
2019-04-03T16:16:48.446Z,17.90
2019-04-03T16:19:15.910Z,17.80
2019-04-03T16:21:43.678Z,17.70
2019-04-03T16:24:13.223Z,17.70
2019-04-03T16:26:40.674Z,17.60
2019-04-03T16:29:09.248Z,17.50
2019-04-03T16:31:37.245Z,17.50
2019-04-03T16:34:06.851Z,17.30
2019-04-03T16:36:34.160Z,17.20
2019-04-03T16:39:04.050Z,17.20
2019-04-03T16:41:31.541Z,17.10
2019-04-03T16:43:59.011Z,17.00
2019-04-03T16:46:26.482Z,17.00
2019-04-03T16:48:54.082Z,17.00
2019-04-03T16:51:21.637Z,16.90
2019-04-03T16:53:49.491Z,16.90
2019-04-03T16:56:18.294Z,16.90
2019-04-03T16:58:46.363Z,16.90
2019-04-03T17:01:14.726Z,16.80
2019-04-03T17:03:43.346Z,16.80
2019-04-03T17:06:11.284Z,16.80
2019-04-03T17:08:38.782Z,16.80
2019-04-03T17:11:06.298Z,16.70
2019-04-03T17:13:33.776Z,16.70
2019-04-03T17:16:01.316Z,16.60
2019-04-03T17:18:28.770Z,16.50
2019-04-03T17:20:56.916Z,16.50
2019-04-03T17:23:24.536Z,16.50
2019-04-03T17:25:52.387Z,16.40
2019-04-03T17:28:19.996Z,16.30
2019-04-03T17:30:49.865Z,16.30
2019-04-03T17:33:17.001Z,16.20
2019-04-03T17:35:47.156Z,16.00
2019-04-03T17:38:13.781Z,16.00
2019-04-03T17:40:41.288Z,16.00
2019-04-03T17:43:08.763Z,16.00
2019-04-03T17:45:36.240Z,16.10
2019-04-03T17:48:04.227Z,16.10
2019-04-03T17:50:31.677Z,16.10
2019-04-03T17:52:59.207Z,16.00
2019-04-03T17:55:26.651Z,16.00
2019-04-03T17:57:54.173Z,15.90
2019-04-03T18:00:22.394Z,15.80
2019-04-03T18:02:49.897Z,15.80
2019-04-03T18:05:17.437Z,15.70
2019-04-03T18:07:44.924Z,15.80
2019-04-03T18:10:13.395Z,15.80
2019-04-03T18:12:40.877Z,15.80
2019-04-03T18:15:09.415Z,15.70
2019-04-03T18:17:36.886Z,15.70
2019-04-03T18:20:05.546Z,15.70
2019-04-03T18:22:33.063Z,15.60
2019-04-03T18:25:00.551Z,15.60
2019-04-03T18:27:28.069Z,15.70
2019-04-03T18:29:55.532Z,15.70
2019-04-03T18:32:23.061Z,15.70
2019-04-03T18:34:51.296Z,15.80
2019-04-03T18:37:19.874Z,15.80
2019-04-03T18:39:47.324Z,15.90
2019-04-03T18:42:14.844Z,15.90
2019-04-03T18:44:42.425Z,15.90
2019-04-03T18:47:09.889Z,15.80
2019-04-03T18:49:37.737Z,15.80
2019-04-03T18:52:08.472Z,15.90
2019-04-03T18:54:36.080Z,15.90
2019-04-03T18:57:03.549Z,15.90
2019-04-03T18:59:31.273Z,15.80
2019-04-03T19:01:58.708Z,15.80
2019-04-03T19:04:26.217Z,15.80
2019-04-03T19:06:53.975Z,15.80
2019-04-03T19:09:21.706Z,15.80
2019-04-03T19:11:51.433Z,15.80
2019-04-03T19:14:26.865Z,15.90
2019-04-03T19:16:52.627Z,15.80
2019-04-03T19:19:18.913Z,15.80
2019-04-03T19:21:46.423Z,15.90
2019-04-03T19:24:13.930Z,15.80
2019-04-03T19:26:41.388Z,15.80
2019-04-03T19:43:41.874Z,15.40
2019-04-03T19:46:09.442Z,15.40
2019-04-03T19:48:37.011Z,15.20
2019-04-03T19:51:04.496Z,15.20
2019-04-03T19:53:32.004Z,15.10
2019-04-03T19:55:59.467Z,15.00
2019-04-03T19:58:28.940Z,15.00
2019-04-03T20:00:56.259Z,14.80
2019-04-03T20:03:23.748Z,14.60
2019-04-03T20:05:55.227Z,14.50
2019-04-03T20:08:22.871Z,14.30
2019-04-03T20:10:50.376Z,14.00
2019-04-03T20:13:17.916Z,14.00
2019-04-03T20:15:45.506Z,13.80
2019-04-03T20:18:12.991Z,13.70
2019-04-03T20:20:40.515Z,13.60
2019-04-03T20:23:10.457Z,13.60
2019-04-03T20:25:37.366Z,13.50
2019-04-03T20:28:04.991Z,13.50
2019-04-03T20:30:33.361Z,13.50
2019-04-03T20:33:00.881Z,13.40
2019-04-03T20:35:28.358Z,13.30
2019-04-03T20:37:57.013Z,13.20
2019-04-03T20:40:25.311Z,13.00
2019-04-03T20:42:52.798Z,12.70
2019-04-03T20:45:20.265Z,12.40
2019-04-03T20:47:47.978Z,12.10
2019-04-03T20:50:16.308Z,11.70
2019-04-03T20:52:45.797Z,11.40
2019-04-03T20:55:13.639Z,11.10
2019-04-03T20:57:41.111Z,10.70
2019-04-03T21:00:12.785Z,10.40
2019-04-03T21:02:41.985Z,10.10
2019-04-03T21:05:10.491Z,9.90
2019-04-03T21:07:37.956Z,9.70
2019-04-03T21:10:05.670Z,9.50
2019-04-03T21:12:35.518Z,9.20
2019-04-03T21:15:08.188Z,8.90
2019-04-03T21:17:31.879Z,8.70
2019-04-03T21:19:59.411Z,8.40
2019-04-03T21:22:29.638Z,8.30
2019-04-03T21:24:56.604Z,8.10
2019-04-03T21:27:24.142Z,8.00
2019-04-03T21:29:51.650Z,7.90
2019-04-03T21:32:19.116Z,7.90
2019-04-03T21:34:46.590Z,7.80
2019-04-03T21:37:14.203Z,7.70
2019-04-03T21:39:43.545Z,7.60
2019-04-03T21:42:10.977Z,7.60
2019-04-03T21:44:38.440Z,7.50
2019-04-03T21:47:05.931Z,7.40
2019-04-03T21:49:33.389Z,7.40
2019-04-03T21:52:00.875Z,7.40
2019-04-03T21:54:28.357Z,7.30
2019-04-03T21:56:55.886Z,7.40
2019-04-03T21:59:23.364Z,7.40
2019-04-03T22:01:50.893Z,7.40
2019-04-03T22:04:18.350Z,7.40
2019-04-03T22:06:45.821Z,7.40
2019-04-03T22:09:13.303Z,7.40
2019-04-03T22:11:40.767Z,7.30
2019-04-03T22:14:10.671Z,6.70
2019-04-03T22:16:37.776Z,7.20
2019-04-03T22:19:05.262Z,7.10
2019-04-03T22:21:33.032Z,7.10
2019-04-03T22:24:00.667Z,7.00
2019-04-03T22:26:28.166Z,6.90
2019-04-03T22:29:06.149Z,6.80
2019-04-03T22:31:33.864Z,4.90
2019-04-03T22:34:01.317Z,6.60
2019-04-03T22:36:28.773Z,6.50
2019-04-03T22:38:56.271Z,6.50
2019-04-03T22:41:26.417Z,6.40
2019-04-03T22:43:58.147Z,6.50
2019-04-03T22:46:25.635Z,6.50
2019-04-03T22:48:53.115Z,6.40
2019-04-03T22:51:20.554Z,6.30
2019-04-03T22:53:48.234Z,6.30
2019-04-03T22:56:16.952Z,6.20
2019-04-03T22:58:44.896Z,6.20
2019-04-03T23:01:12.395Z,6.20
2019-04-03T23:03:39.858Z,6.20
2019-04-03T23:06:07.547Z,6.10
2019-04-03T23:08:35.018Z,6.10
2019-04-03T23:11:02.579Z,6.00
2019-04-03T23:13:30.301Z,5.90
2019-04-03T23:15:57.773Z,5.90
2019-04-03T23:18:25.328Z,5.80
2019-04-03T23:20:53.335Z,5.80
2019-04-03T23:23:20.937Z,5.70
2019-04-03T23:25:48.448Z,5.70
2019-04-03T23:28:15.975Z,5.70
2019-04-03T23:30:43.484Z,5.70
2019-04-03T23:33:10.981Z,5.70
2019-04-03T23:35:38.479Z,5.70
2019-04-03T23:38:06.200Z,5.60
2019-04-03T23:40:34.752Z,5.60
2019-04-03T23:43:02.558Z,5.60
2019-04-03T23:45:31.179Z,5.60
2019-04-03T23:47:58.849Z,5.50
2019-04-03T23:50:26.374Z,5.50
2019-04-03T23:52:53.879Z,5.50
2019-04-03T23:55:21.547Z,5.40
2019-04-03T23:57:49.063Z,5.40
